sensor_id;sensor_type;location;lat;lon;timestamp;pressure;altitude;pressure_sealevel;temperature;humidity
79347;BME280;68815;48.810;44.482;2023-08-12T00:02:15;100601;;;24.9;36.9
79347;BME280;68815;48.810;44.482;2023-08-12T00:05:16;100605;;;24.9;37.2
79347;BME280;68815;48.810;44.482;2023-08-12T00:08:18;100609;;;24.9;37.2
79347;BME280;68815;48.810;44.482;2023-08-12T00:11:19;100605;;;24.8;37.5
79347;BME280;68815;48.810;44.482;2023-08-12T00:14:21;100606;;;24.8;37.6
79347;BME280;68815;48.810;44.482;2023-08-12T00:17:22;100606;;;24.8;37.6
79347;BME280;68815;48.810;44.482;2023-08-12T00:20:24;100615;;;24.8;37.7
79347;BME280;68815;48.810;44.482;2023-08-12T00:23:25;100620;;;24.9;37.8
79347;BME280;68815;48.810;44.482;2023-08-12T00:26:26;100626;;;24.9;37.9
79347;BME280;68815;48.810;44.482;2023-08-12T00:29:28;100624;;;24.8;38.2
79347;BME280;68815;48.810;44.482;2023-08-12T00:32:30;100609;;;24.7;38.3
79347;BME280;68815;48.810;44.482;2023-08-12T00:35:31;100606;;;24.7;38.7
79347;BME280;68815;48.810;44.482;2023-08-12T00:38:33;100606;;;24.6;39.2
79347;BME280;68815;48.810;44.482;2023-08-12T00:41:35;100603;;;24.5;39.6
79347;BME280;68815;48.810;44.482;2023-08-12T00:44:36;100597;;;24.5;39.7
79347;BME280;68815;48.810;44.482;2023-08-12T00:47:39;100601;;;24.6;39.4
79347;BME280;68815;48.810;44.482;2023-08-12T00:50:41;100603;;;24.6;39.6
79347;BME280;68815;48.810;44.482;2023-08-12T00:53:44;100601;;;24.6;39.8
79347;BME280;68815;48.810;44.482;2023-08-12T00:56:48;100610;;;24.6;40
79347;BME280;68815;48.810;44.482;2023-08-12T00:59:49;100613;;;24.7;39.9
79347;BME280;68815;48.810;44.482;2023-08-12T01:02:51;100616;;;24.7;40.1
79347;BME280;68815;48.810;44.482;2023-08-12T01:05:52;100614;;;24.7;40.1
79347;BME280;68815;48.810;44.482;2023-08-12T01:08:54;100622;;;24.7;40
79347;BME280;68815;48.810;44.482;2023-08-12T01:12:01;100620;;;24.6;40.1
79347;BME280;68815;48.810;44.482;2023-08-12T01:15:07;100615;;;24.6;40.1
79347;BME280;68815;48.810;44.482;2023-08-12T01:18:11;100616;;;24.5;40.3
79347;BME280;68815;48.810;44.482;2023-08-12T01:21:15;100616;;;24.5;40.4
79347;BME280;68815;48.810;44.482;2023-08-12T01:24:19;100613;;;24.5;40.2
79347;BME280;68815;48.810;44.482;2023-08-12T01:27:20;100623;;;24.6;39.8
79347;BME280;68815;48.810;44.482;2023-08-12T01:30:22;100624;;;24.5;40.1
79347;BME280;68815;48.810;44.482;2023-08-12T01:33:28;100631;;;24.5;40.2
79347;BME280;68815;48.810;44.482;2023-08-12T01:36:34;100637;;;24.4;40.5
79347;BME280;68815;48.810;44.482;2023-08-12T01:39:39;100634;;;24.3;40.3
79347;BME280;68815;48.810;44.482;2023-08-12T01:42:41;100633;;;24.3;40.4
79347;BME280;68815;48.810;44.482;2023-08-12T01:45:43;100642;;;24.3;40.1
79347;BME280;68815;48.810;44.482;2023-08-12T01:48:45;100649;;;24.1;40.3
79347;BME280;68815;48.810;44.482;2023-08-12T01:51:47;100650;;;24;40.7
79347;BME280;68815;48.810;44.482;2023-08-12T01:54:48;100650;;;24;40.7
79347;BME280;68815;48.810;44.482;2023-08-12T01:57:49;100659;;;23.9;40.8
79347;BME280;68815;48.810;44.482;2023-08-12T02:00:51;100659;;;24;40.6
79347;BME280;68815;48.810;44.482;2023-08-12T02:03:52;100664;;;24.1;40.5
79347;BME280;68815;48.810;44.482;2023-08-12T02:06:54;100674;;;24.1;40.2
79347;BME280;68815;48.810;44.482;2023-08-12T02:09:56;100681;;;24.2;40.2
79347;BME280;68815;48.810;44.482;2023-08-12T02:12:57;100688;;;24.3;40.1
79347;BME280;68815;48.810;44.482;2023-08-12T02:15:58;100683;;;24.4;40.1
79347;BME280;68815;48.810;44.482;2023-08-12T02:19:00;100679;;;24.5;39.8
79347;BME280;68815;48.810;44.482;2023-08-12T02:22:02;100673;;;24.5;39.8
79347;BME280;68815;48.810;44.482;2023-08-12T02:25:04;100678;;;24.6;39.4
79347;BME280;68815;48.810;44.482;2023-08-12T02:28:05;100685;;;24.8;39.3
79347;BME280;68815;48.810;44.482;2023-08-12T02:31:07;100687;;;24.8;39.2
79347;BME280;68815;48.810;44.482;2023-08-12T02:34:08;100692;;;25;39
79347;BME280;68815;48.810;44.482;2023-08-12T02:37:10;100692;;;25.1;39.1
79347;BME280;68815;48.810;44.482;2023-08-12T02:40:12;100692;;;25;38.9
79347;BME280;68815;48.810;44.482;2023-08-12T02:43:13;100689;;;25.1;39.2
79347;BME280;68815;48.810;44.482;2023-08-12T02:46:15;100692;;;25.2;38.6
79347;BME280;68815;48.810;44.482;2023-08-12T02:49:17;100695;;;25.2;38.3
79347;BME280;68815;48.810;44.482;2023-08-12T02:52:18;100695;;;25.3;38.5
79347;BME280;68815;48.810;44.482;2023-08-12T02:55:20;100682;;;25;39.1
79347;BME280;68815;48.810;44.482;2023-08-12T02:58:21;100683;;;25;38.9
79347;BME280;68815;48.810;44.482;2023-08-12T03:01:22;100679;;;25;39.1
79347;BME280;68815;48.810;44.482;2023-08-12T03:04:24;100679;;;25;39.1
79347;BME280;68815;48.810;44.482;2023-08-12T03:07:25;100683;;;25;38.8
79347;BME280;68815;48.810;44.482;2023-08-12T03:10:27;100689;;;25;38.9
79347;BME280;68815;48.810;44.482;2023-08-12T03:13:29;100686;;;24.9;39.1
79347;BME280;68815;48.810;44.482;2023-08-12T03:16:30;100697;;;25;39.2
79347;BME280;68815;48.810;44.482;2023-08-12T03:19:32;100700;;;25.1;38.8
79347;BME280;68815;48.810;44.482;2023-08-12T03:22:33;100698;;;25.2;39.1
79347;BME280;68815;48.810;44.482;2023-08-12T03:25:35;100700;;;25.2;38.6
79347;BME280;68815;48.810;44.482;2023-08-12T03:28:36;100697;;;25.3;38.9
79347;BME280;68815;48.810;44.482;2023-08-12T03:31:38;100703;;;25.6;38.1
79347;BME280;68815;48.810;44.482;2023-08-12T03:34:39;100698;;;25.6;38.2
79347;BME280;68815;48.810;44.482;2023-08-12T03:37:41;100687;;;25.7;38
79347;BME280;68815;48.810;44.482;2023-08-12T03:40:43;100701;;;25.9;37.6
79347;BME280;68815;48.810;44.482;2023-08-12T03:43:44;100699;;;26.1;36.9
79347;BME280;68815;48.810;44.482;2023-08-12T03:46:46;100701;;;26.3;36.8
79347;BME280;68815;48.810;44.482;2023-08-12T03:49:47;100709;;;26.4;36.6
79347;BME280;68815;48.810;44.482;2023-08-12T03:52:48;100703;;;26.5;36.2
79347;BME280;68815;48.810;44.482;2023-08-12T03:55:50;100710;;;26.4;36.3
79347;BME280;68815;48.810;44.482;2023-08-12T03:58:52;100713;;;26.3;36.3
79347;BME280;68815;48.810;44.482;2023-08-12T04:01:53;100713;;;26.3;36.3
79347;BME280;68815;48.810;44.482;2023-08-12T04:04:55;100712;;;26.3;36.4
79347;BME280;68815;48.810;44.482;2023-08-12T04:07:56;100717;;;26.3;36.4
79347;BME280;68815;48.810;44.482;2023-08-12T04:10:58;100723;;;26.4;36.5
79347;BME280;68815;48.810;44.482;2023-08-12T04:13:59;100722;;;26.5;36.9
79347;BME280;68815;48.810;44.482;2023-08-12T04:17:01;100718;;;26.7;36.3
79347;BME280;68815;48.810;44.482;2023-08-12T04:20:02;100717;;;26.7;35.9
79347;BME280;68815;48.810;44.482;2023-08-12T04:23:05;100720;;;26.6;36
79347;BME280;68815;48.810;44.482;2023-08-12T04:26:07;100724;;;26.6;35.9
79347;BME280;68815;48.810;44.482;2023-08-12T04:29:08;100726;;;26.6;36.1
79347;BME280;68815;48.810;44.482;2023-08-12T04:32:10;100725;;;26.8;35.9
79347;BME280;68815;48.810;44.482;2023-08-12T04:35:11;100721;;;27;35.5
79347;BME280;68815;48.810;44.482;2023-08-12T04:38:14;100715;;;27;36
79347;BME280;68815;48.810;44.482;2023-08-12T04:41:15;100720;;;27.1;36
79347;BME280;68815;48.810;44.482;2023-08-12T04:44:17;100716;;;27.5;35.1
79347;BME280;68815;48.810;44.482;2023-08-12T04:47:19;100720;;;27.8;34.5
79347;BME280;68815;48.810;44.482;2023-08-12T04:50:20;100720;;;28.3;33.7
79347;BME280;68815;48.810;44.482;2023-08-12T04:53:21;100734;;;28.9;33.3
79347;BME280;68815;48.810;44.482;2023-08-12T04:56:23;100743;;;29.3;31.3
79347;BME280;68815;48.810;44.482;2023-08-12T04:59:25;100751;;;29.8;30.9
79347;BME280;68815;48.810;44.482;2023-08-12T05:02:28;100757;;;29.4;31.9
79347;BME280;68815;48.810;44.482;2023-08-12T05:05:30;100757;;;29.6;31.8
79347;BME280;68815;48.810;44.482;2023-08-12T05:08:31;100757;;;29.2;31.6
79347;BME280;68815;48.810;44.482;2023-08-12T05:11:32;100759;;;29.4;31.9
79347;BME280;68815;48.810;44.482;2023-08-12T05:14:34;100761;;;29.1;32
79347;BME280;68815;48.810;44.482;2023-08-12T05:17:36;100759;;;29.1;31.7
79347;BME280;68815;48.810;44.482;2023-08-12T05:20:37;100763;;;29.2;32.3
79347;BME280;68815;48.810;44.482;2023-08-12T05:23:40;100771;;;30.1;30.5
79347;BME280;68815;48.810;44.482;2023-08-12T05:26:41;100773;;;30.5;30.6
79347;BME280;68815;48.810;44.482;2023-08-12T05:29:42;100778;;;30.6;29.3
79347;BME280;68815;48.810;44.482;2023-08-12T05:32:44;100781;;;30.1;28.6
79347;BME280;68815;48.810;44.482;2023-08-12T05:35:47;100796;;;30;29.2
79347;BME280;68815;48.810;44.482;2023-08-12T05:38:48;100816;;;30.1;29.5
79347;BME280;68815;48.810;44.482;2023-08-12T05:41:50;100816;;;30.2;29.3
79347;BME280;68815;48.810;44.482;2023-08-12T05:44:52;100831;;;30.1;29.5
79347;BME280;68815;48.810;44.482;2023-08-12T05:47:54;100832;;;30;29.8
79347;BME280;68815;48.810;44.482;2023-08-12T05:50:56;100841;;;29.9;30.3
79347;BME280;68815;48.810;44.482;2023-08-12T05:53:57;100845;;;30.4;30.4
79347;BME280;68815;48.810;44.482;2023-08-12T05:56:59;100842;;;30.2;29.3
79347;BME280;68815;48.810;44.482;2023-08-12T06:00:00;100831;;;30;29.8
79347;BME280;68815;48.810;44.482;2023-08-12T06:03:02;100825;;;30.3;29.9
79347;BME280;68815;48.810;44.482;2023-08-12T06:06:03;100824;;;30.1;30
79347;BME280;68815;48.810;44.482;2023-08-12T06:09:05;100830;;;29.9;30
79347;BME280;68815;48.810;44.482;2023-08-12T06:12:06;100838;;;30;30.6
79347;BME280;68815;48.810;44.482;2023-08-12T06:15:08;100830;;;30.2;29.5
79347;BME280;68815;48.810;44.482;2023-08-12T06:18:09;100821;;;30.2;29.2
79347;BME280;68815;48.810;44.482;2023-08-12T06:21:11;100840;;;30.2;29.3
79347;BME280;68815;48.810;44.482;2023-08-12T06:24:12;100840;;;30;29.8
79347;BME280;68815;48.810;44.482;2023-08-12T06:27:14;100838;;;29.7;30.4
79347;BME280;68815;48.810;44.482;2023-08-12T06:30:15;100844;;;29.8;30.5
79347;BME280;68815;48.810;44.482;2023-08-12T06:33:17;100840;;;29.8;29.8
79347;BME280;68815;48.810;44.482;2023-08-12T06:36:18;100844;;;29.9;30.5
79347;BME280;68815;48.810;44.482;2023-08-12T06:39:20;100841;;;29.9;29.7
79347;BME280;68815;48.810;44.482;2023-08-12T06:42:21;100842;;;30.1;30.3
79347;BME280;68815;48.810;44.482;2023-08-12T06:45:23;100839;;;30.3;29.8
79347;BME280;68815;48.810;44.482;2023-08-12T06:48:25;100827;;;30.7;29.7
79347;BME280;68815;48.810;44.482;2023-08-12T06:51:26;100837;;;31;29.5
79347;BME280;68815;48.810;44.482;2023-08-12T06:54:27;100830;;;31;29.6
79347;BME280;68815;48.810;44.482;2023-08-12T06:57:29;100834;;;30.7;29.4
79347;BME280;68815;48.810;44.482;2023-08-12T07:00:30;100834;;;30.8;29.4
79347;BME280;68815;48.810;44.482;2023-08-12T07:03:32;100841;;;30.9;29.5
79347;BME280;68815;48.810;44.482;2023-08-12T07:06:33;100850;;;31;29.3
79347;BME280;68815;48.810;44.482;2023-08-12T07:09:35;100854;;;31.2;30.5
79347;BME280;68815;48.810;44.482;2023-08-12T07:12:36;100845;;;31.5;29.5
79347;BME280;68815;48.810;44.482;2023-08-12T07:15:38;100830;;;31.5;27.9
79347;BME280;68815;48.810;44.482;2023-08-12T07:18:39;100827;;;31.6;27.3
79347;BME280;68815;48.810;44.482;2023-08-12T07:21:41;100822;;;31.6;27.3
79347;BME280;68815;48.810;44.482;2023-08-12T07:24:42;100817;;;31.7;27
79347;BME280;68815;48.810;44.482;2023-08-12T07:27:44;100819;;;31.6;26.7
79347;BME280;68815;48.810;44.482;2023-08-12T07:30:45;100805;;;31.6;27.6
79347;BME280;68815;48.810;44.482;2023-08-12T07:33:47;100795;;;31.6;26.2
79347;BME280;68815;48.810;44.482;2023-08-12T07:36:48;100804;;;31.7;27.1
79347;BME280;68815;48.810;44.482;2023-08-12T07:39:52;100809;;;31.6;27.3
79347;BME280;68815;48.810;44.482;2023-08-12T07:42:54;100815;;;31.7;26.9
79347;BME280;68815;48.810;44.482;2023-08-12T07:45:55;100814;;;31.7;27
79347;BME280;68815;48.810;44.482;2023-08-12T07:48:58;100809;;;31.5;26.7
79347;BME280;68815;48.810;44.482;2023-08-12T07:51:59;100818;;;31.5;26.8
79347;BME280;68815;48.810;44.482;2023-08-12T07:55:00;100836;;;31.5;26.2
79347;BME280;68815;48.810;44.482;2023-08-12T07:58:02;100847;;;31.5;27.5
79347;BME280;68815;48.810;44.482;2023-08-12T08:01:03;100851;;;31.5;27.6
79347;BME280;68815;48.810;44.482;2023-08-12T08:04:05;100853;;;31.5;28
79347;BME280;68815;48.810;44.482;2023-08-12T08:07:07;100853;;;31.6;27.7
79347;BME280;68815;48.810;44.482;2023-08-12T08:10:09;100860;;;31.7;27.3
79347;BME280;68815;48.810;44.482;2023-08-12T08:13:10;100859;;;31.8;28.3
79347;BME280;68815;48.810;44.482;2023-08-12T08:16:12;100853;;;31.9;27.7
79347;BME280;68815;48.810;44.482;2023-08-12T08:19:13;100848;;;32;27.8
79347;BME280;68815;48.810;44.482;2023-08-12T08:22:15;100852;;;32;26.8
79347;BME280;68815;48.810;44.482;2023-08-12T08:25:16;100855;;;32.1;27.6
79347;BME280;68815;48.810;44.482;2023-08-12T08:28:18;100848;;;32.1;27.4
79347;BME280;68815;48.810;44.482;2023-08-12T08:31:19;100848;;;32;25.6
79347;BME280;68815;48.810;44.482;2023-08-12T08:34:21;100846;;;32;26.7
79347;BME280;68815;48.810;44.482;2023-08-12T08:37:22;100837;;;32;26.5
79347;BME280;68815;48.810;44.482;2023-08-12T08:40:25;100831;;;32;25.7
79347;BME280;68815;48.810;44.482;2023-08-12T08:43:26;100835;;;32.1;26.4
79347;BME280;68815;48.810;44.482;2023-08-12T08:46:29;100832;;;32;27.1
79347;BME280;68815;48.810;44.482;2023-08-12T08:49:31;100829;;;32;26.2
79347;BME280;68815;48.810;44.482;2023-08-12T08:52:34;100839;;;31.8;27
79347;BME280;68815;48.810;44.482;2023-08-12T08:55:36;100833;;;31.7;27.5
79347;BME280;68815;48.810;44.482;2023-08-12T08:58:38;100822;;;31.7;27.3
79347;BME280;68815;48.810;44.482;2023-08-12T09:01:40;100809;;;31.7;27.2
79347;BME280;68815;48.810;44.482;2023-08-12T09:04:42;100798;;;31.6;27.9
79347;BME280;68815;48.810;44.482;2023-08-12T09:07:44;100790;;;31.6;26.9
79347;BME280;68815;48.810;44.482;2023-08-12T09:10:46;100791;;;31.6;28.1
79347;BME280;68815;48.810;44.482;2023-08-12T09:13:48;100787;;;31.6;27.5
79347;BME280;68815;48.810;44.482;2023-08-12T09:16:49;100792;;;31.5;27
79347;BME280;68815;48.810;44.482;2023-08-12T09:19:51;100797;;;31.5;27.1
79347;BME280;68815;48.810;44.482;2023-08-12T09:22:56;100773;;;31.3;27.2
79347;BME280;68815;48.810;44.482;2023-08-12T09:25:57;100709;;;31.2;27.7
79347;BME280;68815;48.810;44.482;2023-08-12T09:28:59;100641;;;31.1;27.8
79347;BME280;68815;48.810;44.482;2023-08-12T09:32:06;100629;;;31.2;27.2
79347;BME280;68815;48.810;44.482;2023-08-12T09:35:15;100592;;;31.3;26.4
79347;BME280;68815;48.810;44.482;2023-08-12T09:38:17;100540;;;31.3;26.3
79347;BME280;68815;48.810;44.482;2023-08-12T09:41:19;100467;;;31.3;26.9
79347;BME280;68815;48.810;44.482;2023-08-12T09:44:21;100434;;;31.3;26.1
79347;BME280;68815;48.810;44.482;2023-08-12T09:47:24;100397;;;31.4;26
79347;BME280;68815;48.810;44.482;2023-08-12T09:50:27;100399;;;31.4;26.1
79347;BME280;68815;48.810;44.482;2023-08-12T09:53:29;100447;;;31.5;25.8
79347;BME280;68815;48.810;44.482;2023-08-12T09:56:36;100455;;;31.6;25.4
79347;BME280;68815;48.810;44.482;2023-08-12T09:59:40;100509;;;31.9;25.8
79347;BME280;68815;48.810;44.482;2023-08-12T10:02:43;100529;;;32.1;25.6
79347;BME280;68815;48.810;44.482;2023-08-12T10:05:44;100532;;;32.3;24.7
79347;BME280;68815;48.810;44.482;2023-08-12T10:08:47;100554;;;32.5;25
79347;BME280;68815;48.810;44.482;2023-08-12T10:11:48;100551;;;32.6;24.4
79347;BME280;68815;48.810;44.482;2023-08-12T10:14:50;100564;;;32.7;24.4
79347;BME280;68815;48.810;44.482;2023-08-12T10:17:52;100572;;;32.7;23.9
79347;BME280;68815;48.810;44.482;2023-08-12T10:20:57;100566;;;32.8;24.5
79347;BME280;68815;48.810;44.482;2023-08-12T10:23:58;100592;;;33.1;23.3
79347;BME280;68815;48.810;44.482;2023-08-12T10:27:01;100566;;;33.2;23.8
79347;BME280;68815;48.810;44.482;2023-08-12T10:30:02;100567;;;33.5;23.1
79347;BME280;68815;48.810;44.482;2023-08-12T10:33:05;100565;;;33.4;22.9
79347;BME280;68815;48.810;44.482;2023-08-12T10:36:07;100572;;;33.3;22.9
79347;BME280;68815;48.810;44.482;2023-08-12T10:39:09;100560;;;33.3;23
79347;BME280;68815;48.810;44.482;2023-08-12T10:42:11;100578;;;33.4;22.2
79347;BME280;68815;48.810;44.482;2023-08-12T10:45:13;100577;;;33.4;21
79347;BME280;68815;48.810;44.482;2023-08-12T10:48:16;100585;;;33.5;21.4
79347;BME280;68815;48.810;44.482;2023-08-12T10:51:41;100584;;;33.5;21.1
79347;BME280;68815;48.810;44.482;2023-08-12T10:54:45;100597;;;33.5;21
79347;BME280;68815;48.810;44.482;2023-08-12T10:57:47;100567;;;33.5;20.8
79347;BME280;68815;48.810;44.482;2023-08-12T11:00:53;100593;;;33.5;20.8
79347;BME280;68815;48.810;44.482;2023-08-12T11:03:57;100575;;;33.7;20.7
79347;BME280;68815;48.810;44.482;2023-08-12T11:06:59;100567;;;33.9;20.6
79347;BME280;68815;48.810;44.482;2023-08-12T11:10:09;100553;;;33.7;20.2
79347;BME280;68815;48.810;44.482;2023-08-12T11:13:13;100580;;;33.5;20.3
79347;BME280;68815;48.810;44.482;2023-08-12T11:16:17;100567;;;33.5;20.6
79347;BME280;68815;48.810;44.482;2023-08-12T11:19:19;100562;;;33.5;20.6
79347;BME280;68815;48.810;44.482;2023-08-12T11:22:22;100569;;;33.7;20.5
79347;BME280;68815;48.810;44.482;2023-08-12T11:25:24;100586;;;33.6;20.5
79347;BME280;68815;48.810;44.482;2023-08-12T11:28:26;100567;;;33.5;20.5
79347;BME280;68815;48.810;44.482;2023-08-12T11:31:28;100563;;;33.5;20.7
79347;BME280;68815;48.810;44.482;2023-08-12T11:34:29;100556;;;33.5;20.5
79347;BME280;68815;48.810;44.482;2023-08-12T11:37:31;100560;;;33.5;20.3
79347;BME280;68815;48.810;44.482;2023-08-12T11:40:33;100559;;;33.5;20.4
79347;BME280;68815;48.810;44.482;2023-08-12T11:43:35;100576;;;33.6;20.8
79347;BME280;68815;48.810;44.482;2023-08-12T11:46:37;100569;;;33.5;20.8
79347;BME280;68815;48.810;44.482;2023-08-12T11:49:38;100575;;;33.4;20.9
79347;BME280;68815;48.810;44.482;2023-08-12T11:52:40;100572;;;33.4;21.5
79347;BME280;68815;48.810;44.482;2023-08-12T11:55:42;100585;;;33.3;21.5
79347;BME280;68815;48.810;44.482;2023-08-12T11:58:43;100577;;;33.3;21.3
79347;BME280;68815;48.810;44.482;2023-08-12T12:01:48;100567;;;33.3;23.1
79347;BME280;68815;48.810;44.482;2023-08-12T12:04:51;100584;;;33.1;24.1
79347;BME280;68815;48.810;44.482;2023-08-12T12:07:53;100577;;;33;24.1
79347;BME280;68815;48.810;44.482;2023-08-12T12:10:55;100584;;;33;24.7
79347;BME280;68815;48.810;44.482;2023-08-12T12:14:00;100587;;;33;23.9
79347;BME280;68815;48.810;44.482;2023-08-12T12:17:07;100592;;;32.9;24.3
79347;BME280;68815;48.810;44.482;2023-08-12T12:20:09;100603;;;33;23.4
79347;BME280;68815;48.810;44.482;2023-08-12T12:23:11;100602;;;33.1;23.4
79347;BME280;68815;48.810;44.482;2023-08-12T12:26:12;100609;;;33.1;24.4
79347;BME280;68815;48.810;44.482;2023-08-12T12:29:14;100612;;;33.1;23.5
79347;BME280;68815;48.810;44.482;2023-08-12T12:32:18;100610;;;33.3;23
79347;BME280;68815;48.810;44.482;2023-08-12T12:35:19;100611;;;33.3;22.4
79347;BME280;68815;48.810;44.482;2023-08-12T12:38:21;100610;;;33.4;21.9
79347;BME280;68815;48.810;44.482;2023-08-12T12:41:23;100605;;;33.3;22.8
79347;BME280;68815;48.810;44.482;2023-08-12T12:44:24;100606;;;33.2;22.3
79347;BME280;68815;48.810;44.482;2023-08-12T12:47:25;100609;;;33.2;22.4
79347;BME280;68815;48.810;44.482;2023-08-12T12:50:27;100618;;;33.4;22.2
79347;BME280;68815;48.810;44.482;2023-08-12T12:53:28;100612;;;33.5;22.4
79347;BME280;68815;48.810;44.482;2023-08-12T12:56:30;100610;;;33.4;22.5
79347;BME280;68815;48.810;44.482;2023-08-12T12:59:32;100609;;;33.5;22
79347;BME280;68815;48.810;44.482;2023-08-12T13:02:33;100617;;;33.6;21.9
79347;BME280;68815;48.810;44.482;2023-08-12T13:05:35;100615;;;33.7;21.4
79347;BME280;68815;48.810;44.482;2023-08-12T13:08:36;100612;;;33.7;21.6
79347;BME280;68815;48.810;44.482;2023-08-12T13:11:38;100605;;;33.6;22.3
79347;BME280;68815;48.810;44.482;2023-08-12T13:14:39;100605;;;33.6;21.7
79347;BME280;68815;48.810;44.482;2023-08-12T13:17:40;100602;;;33.7;21.9
79347;BME280;68815;48.810;44.482;2023-08-12T13:20:43;100589;;;33.7;21.9
79347;BME280;68815;48.810;44.482;2023-08-12T13:23:44;100578;;;33.7;21.7
79347;BME280;68815;48.810;44.482;2023-08-12T13:26:46;100572;;;33.6;22.2
79347;BME280;68815;48.810;44.482;2023-08-12T13:29:47;100572;;;33.6;22.1
79347;BME280;68815;48.810;44.482;2023-08-12T13:32:49;100569;;;33.6;22.6
79347;BME280;68815;48.810;44.482;2023-08-12T13:35:50;100565;;;33.5;22.2
79347;BME280;68815;48.810;44.482;2023-08-12T13:38:52;100567;;;33.5;21.7
79347;BME280;68815;48.810;44.482;2023-08-12T13:41:53;100571;;;33.4;21.9
79347;BME280;68815;48.810;44.482;2023-08-12T13:44:55;100565;;;33.4;21.8
79347;BME280;68815;48.810;44.482;2023-08-12T13:47:56;100571;;;33.3;22.3
79347;BME280;68815;48.810;44.482;2023-08-12T13:50:58;100578;;;33.4;21.6
79347;BME280;68815;48.810;44.482;2023-08-12T13:53:59;100567;;;33.3;22
79347;BME280;68815;48.810;44.482;2023-08-12T13:57:03;100570;;;33.2;22.7
79347;BME280;68815;48.810;44.482;2023-08-12T14:00:05;100578;;;33.1;22.8
79347;BME280;68815;48.810;44.482;2023-08-12T14:03:07;100577;;;33.1;23.2
79347;BME280;68815;48.810;44.482;2023-08-12T14:06:08;100584;;;33.2;22.9
79347;BME280;68815;48.810;44.482;2023-08-12T14:09:10;100586;;;33.2;23
79347;BME280;68815;48.810;44.482;2023-08-12T14:12:11;100586;;;33.2;23.7
79347;BME280;68815;48.810;44.482;2023-08-12T14:15:13;100585;;;33.2;23
79347;BME280;68815;48.810;44.482;2023-08-12T14:18:14;100588;;;33.2;23.5
79347;BME280;68815;48.810;44.482;2023-08-12T14:21:16;100598;;;33.1;23.7
79347;BME280;68815;48.810;44.482;2023-08-12T14:24:17;100596;;;33;23.9
79347;BME280;68815;48.810;44.482;2023-08-12T14:27:19;100595;;;33;24.2
79347;BME280;68815;48.810;44.482;2023-08-12T14:30:23;100599;;;33;24.4
79347;BME280;68815;48.810;44.482;2023-08-12T14:33:25;100605;;;32.9;24.7
79347;BME280;68815;48.810;44.482;2023-08-12T14:36:27;100606;;;32.8;25
79347;BME280;68815;48.810;44.482;2023-08-12T14:39:28;100599;;;32.7;25.2
79347;BME280;68815;48.810;44.482;2023-08-12T14:42:30;100603;;;32.6;25.7
79347;BME280;68815;48.810;44.482;2023-08-12T14:45:31;100589;;;32.6;25.7
79347;BME280;68815;48.810;44.482;2023-08-12T14:48:33;100589;;;32.5;26.1
79347;BME280;68815;48.810;44.482;2023-08-12T14:51:34;100598;;;32.5;25.8
79347;BME280;68815;48.810;44.482;2023-08-12T14:54:36;100598;;;32.5;26.1
79347;BME280;68815;48.810;44.482;2023-08-12T14:57:37;100594;;;32.4;26.4
79347;BME280;68815;48.810;44.482;2023-08-12T15:00:39;100590;;;32.3;26.4
79347;BME280;68815;48.810;44.482;2023-08-12T15:03:40;100590;;;32.2;26.8
79347;BME280;68815;48.810;44.482;2023-08-12T15:06:42;100585;;;32.1;27.1
79347;BME280;68815;48.810;44.482;2023-08-12T15:09:43;100574;;;32.1;27.1
79347;BME280;68815;48.810;44.482;2023-08-12T15:12:44;100571;;;32;27.4
79347;BME280;68815;48.810;44.482;2023-08-12T15:15:46;100571;;;31.9;27.6
79347;BME280;68815;48.810;44.482;2023-08-12T15:18:48;100566;;;31.8;27.8
79347;BME280;68815;48.810;44.482;2023-08-12T15:21:49;100560;;;31.8;28
79347;BME280;68815;48.810;44.482;2023-08-12T15:24:51;100554;;;31.7;28.3
79347;BME280;68815;48.810;44.482;2023-08-12T15:27:53;100551;;;31.7;28.2
79347;BME280;68815;48.810;44.482;2023-08-12T15:30:54;100558;;;31.6;28.4
79347;BME280;68815;48.810;44.482;2023-08-12T15:33:55;100564;;;31.5;28.8
79347;BME280;68815;48.810;44.482;2023-08-12T15:36:57;100559;;;31.5;28.6
79347;BME280;68815;48.810;44.482;2023-08-12T15:39:58;100566;;;31.5;28.4
79347;BME280;68815;48.810;44.482;2023-08-12T15:43:00;100564;;;31.5;28.5
79347;BME280;68815;48.810;44.482;2023-08-12T15:46:02;100565;;;31.4;28.7
79347;BME280;68815;48.810;44.482;2023-08-12T15:49:03;100567;;;31.4;28.5
79347;BME280;68815;48.810;44.482;2023-08-12T15:52:05;100572;;;31.4;28.5
79347;BME280;68815;48.810;44.482;2023-08-12T15:55:07;100579;;;31.4;28.6
79347;BME280;68815;48.810;44.482;2023-08-12T15:58:08;100588;;;31.3;28.8
79347;BME280;68815;48.810;44.482;2023-08-12T16:01:10;100585;;;31.3;28.7
79347;BME280;68815;48.810;44.482;2023-08-12T16:04:11;100585;;;31.2;28.8
79347;BME280;68815;48.810;44.482;2023-08-12T16:07:13;100591;;;31.1;28.7
79347;BME280;68815;48.810;44.482;2023-08-12T16:10:14;100592;;;31.1;28.9
79347;BME280;68815;48.810;44.482;2023-08-12T16:13:16;100594;;;31.1;29
79347;BME280;68815;48.810;44.482;2023-08-12T16:16:17;100585;;;31.1;28.9
79347;BME280;68815;48.810;44.482;2023-08-12T16:19:19;100588;;;31;29.1
79347;BME280;68815;48.810;44.482;2023-08-12T16:22:20;100582;;;31;29.3
79347;BME280;68815;48.810;44.482;2023-08-12T16:25:22;100583;;;30.9;29.6
79347;BME280;68815;48.810;44.482;2023-08-12T16:28:24;100577;;;30.8;29.8
79347;BME280;68815;48.810;44.482;2023-08-12T16:31:25;100570;;;30.8;30
79347;BME280;68815;48.810;44.482;2023-08-12T16:34:27;100570;;;30.7;30.5
79347;BME280;68815;48.810;44.482;2023-08-12T16:37:28;100578;;;30.6;30
79347;BME280;68815;48.810;44.482;2023-08-12T16:40:30;100570;;;30.5;29.9
79347;BME280;68815;48.810;44.482;2023-08-12T16:43:31;100566;;;30.5;29.7
79347;BME280;68815;48.810;44.482;2023-08-12T16:46:33;100573;;;30.4;30
79347;BME280;68815;48.810;44.482;2023-08-12T16:49:34;100570;;;30.3;30.2